sensor_id;sensor_type;location;lat;lon;timestamp;P1;durP1;ratioP1;P2;durP2;ratioP2
74749;SDS011;63269;53.330;-6.288;2023-03-31T00:01:29;15.00;;;4.10;;
74749;SDS011;63269;53.330;-6.288;2023-03-31T00:03:57;18.48;;;5.43;;
74749;SDS011;63269;53.330;-6.288;2023-03-31T00:06:28;14.63;;;5.00;;
74749;SDS011;63269;53.330;-6.288;2023-03-31T00:09:06;13.10;;;4.78;;
74749;SDS011;63269;53.330;-6.288;2023-03-31T00:11:33;14.25;;;3.80;;
74749;SDS011;63269;53.330;-6.288;2023-03-31T00:13:58;16.17;;;5.28;;
74749;SDS011;63269;53.330;-6.288;2023-03-31T00:16:24;13.93;;;3.95;;
74749;SDS011;63269;53.330;-6.288;2023-03-31T00:18:50;14.27;;;3.90;;
74749;SDS011;63269;53.330;-6.288;2023-03-31T00:21:17;16.70;;;4.32;;
74749;SDS011;63269;53.330;-6.288;2023-03-31T00:23:54;14.88;;;4.57;;
74749;SDS011;63269;53.330;-6.288;2023-03-31T00:26:23;11.85;;;3.17;;
74749;SDS011;63269;53.330;-6.288;2023-03-31T00:28:50;15.15;;;3.95;;
74749;SDS011;63269;53.330;-6.288;2023-03-31T00:31:16;11.18;;;3.47;;
74749;SDS011;63269;53.330;-6.288;2023-03-31T00:33:41;13.55;;;3.40;;
74749;SDS011;63269;53.330;-6.288;2023-03-31T00:36:07;13.23;;;3.30;;
74749;SDS011;63269;53.330;-6.288;2023-03-31T00:38:32;15.63;;;3.17;;
74749;SDS011;63269;53.330;-6.288;2023-03-31T00:40:58;11.68;;;3.17;;
74749;SDS011;63269;53.330;-6.288;2023-03-31T00:43:30;14.25;;;3.53;;
74749;SDS011;63269;53.330;-6.288;2023-03-31T00:46:05;12.93;;;3.28;;
74749;SDS011;63269;53.330;-6.288;2023-03-31T00:48:51;11.05;;;2.97;;
74749;SDS011;63269;53.330;-6.288;2023-03-31T00:53:49;8.85;;;2.92;;
74749;SDS011;63269;53.330;-6.288;2023-03-31T00:56:21;10.30;;;3.17;;
74749;SDS011;63269;53.330;-6.288;2023-03-31T00:58:48;11.48;;;3.00;;
74749;SDS011;63269;53.330;-6.288;2023-03-31T01:01:15;8.90;;;3.03;;
74749;SDS011;63269;53.330;-6.288;2023-03-31T01:03:45;13.27;;;3.45;;
74749;SDS011;63269;53.330;-6.288;2023-03-31T01:06:15;15.43;;;4.00;;
74749;SDS011;63269;53.330;-6.288;2023-03-31T01:08:43;9.85;;;3.10;;
74749;SDS011;63269;53.330;-6.288;2023-03-31T01:11:12;9.57;;;2.63;;
74749;SDS011;63269;53.330;-6.288;2023-03-31T01:13:40;8.80;;;2.00;;
74749;SDS011;63269;53.330;-6.288;2023-03-31T01:16:07;13.30;;;3.10;;
74749;SDS011;63269;53.330;-6.288;2023-03-31T01:18:32;11.13;;;3.25;;
74749;SDS011;63269;53.330;-6.288;2023-03-31T01:28:04;9.07;;;2.80;;
74749;SDS011;63269;53.330;-6.288;2023-03-31T01:35:37;6.38;;;2.13;;
74749;SDS011;63269;53.330;-6.288;2023-03-31T01:46:34;9.50;;;3.08;;
74749;SDS011;63269;53.330;-6.288;2023-03-31T01:52:11;6.97;;;2.33;;
74749;SDS011;63269;53.330;-6.288;2023-03-31T01:54:51;10.90;;;2.55;;
74749;SDS011;63269;53.330;-6.288;2023-03-31T01:57:22;8.30;;;2.15;;
74749;SDS011;63269;53.330;-6.288;2023-03-31T02:02:31;7.95;;;2.28;;
74749;SDS011;63269;53.330;-6.288;2023-03-31T02:05:23;9.35;;;2.80;;
74749;SDS011;63269;53.330;-6.288;2023-03-31T02:07:52;10.15;;;2.30;;
74749;SDS011;63269;53.330;-6.288;2023-03-31T02:10:47;9.10;;;2.55;;
74749;SDS011;63269;53.330;-6.288;2023-03-31T02:13:14;6.55;;;2.55;;
74749;SDS011;63269;53.330;-6.288;2023-03-31T02:15:42;10.02;;;2.95;;
74749;SDS011;63269;53.330;-6.288;2023-03-31T02:20:41;10.00;;;2.15;;
74749;SDS011;63269;53.330;-6.288;2023-03-31T02:23:09;7.97;;;2.45;;
74749;SDS011;63269;53.330;-6.288;2023-03-31T02:25:40;11.38;;;2.40;;
74749;SDS011;63269;53.330;-6.288;2023-03-31T02:28:11;10.45;;;2.33;;
74749;SDS011;63269;53.330;-6.288;2023-03-31T02:30:52;8.50;;;2.42;;
74749;SDS011;63269;53.330;-6.288;2023-03-31T02:33:18;8.80;;;2.28;;
74749;SDS011;63269;53.330;-6.288;2023-03-31T02:35:44;8.65;;;2.15;;
74749;SDS011;63269;53.330;-6.288;2023-03-31T02:38:09;10.48;;;3.05;;
74749;SDS011;63269;53.330;-6.288;2023-03-31T02:40:35;8.82;;;2.53;;
74749;SDS011;63269;53.330;-6.288;2023-03-31T02:43:01;9.10;;;2.70;;
74749;SDS011;63269;53.330;-6.288;2023-03-31T02:45:37;13.13;;;2.90;;
74749;SDS011;63269;53.330;-6.288;2023-03-31T02:48:24;8.88;;;2.60;;
74749;SDS011;63269;53.330;-6.288;2023-03-31T02:51:00;6.05;;;1.73;;
74749;SDS011;63269;53.330;-6.288;2023-03-31T02:59:05;8.85;;;2.03;;
74749;SDS011;63269;53.330;-6.288;2023-03-31T03:02:00;8.68;;;2.63;;
74749;SDS011;63269;53.330;-6.288;2023-03-31T03:05:29;8.75;;;2.33;;
74749;SDS011;63269;53.330;-6.288;2023-03-31T03:12:55;6.28;;;1.70;;
74749;SDS011;63269;53.330;-6.288;2023-03-31T03:15:33;7.82;;;2.05;;
74749;SDS011;63269;53.330;-6.288;2023-03-31T03:18:01;8.63;;;2.20;;
74749;SDS011;63269;53.330;-6.288;2023-03-31T03:20:29;9.05;;;3.22;;
74749;SDS011;63269;53.330;-6.288;2023-03-31T03:22:58;5.25;;;1.98;;
74749;SDS011;63269;53.330;-6.288;2023-03-31T03:25:24;7.35;;;1.92;;
74749;SDS011;63269;53.330;-6.288;2023-03-31T03:27:49;5.85;;;1.95;;
74749;SDS011;63269;53.330;-6.288;2023-03-31T03:30:17;6.05;;;2.40;;
74749;SDS011;63269;53.330;-6.288;2023-03-31T03:32:43;11.40;;;2.47;;
74749;SDS011;63269;53.330;-6.288;2023-03-31T03:35:09;6.70;;;2.42;;
74749;SDS011;63269;53.330;-6.288;2023-03-31T03:37:35;8.40;;;1.98;;
74749;SDS011;63269;53.330;-6.288;2023-03-31T03:40:00;6.70;;;1.92;;
74749;SDS011;63269;53.330;-6.288;2023-03-31T03:42:26;7.80;;;2.13;;
74749;SDS011;63269;53.330;-6.288;2023-03-31T03:44:51;8.48;;;2.50;;
74749;SDS011;63269;53.330;-6.288;2023-03-31T03:47:16;7.97;;;2.38;;
74749;SDS011;63269;53.330;-6.288;2023-03-31T03:49:42;5.57;;;1.67;;
74749;SDS011;63269;53.330;-6.288;2023-03-31T03:52:08;9.55;;;2.38;;
74749;SDS011;63269;53.330;-6.288;2023-03-31T03:54:34;6.75;;;1.55;;
74749;SDS011;63269;53.330;-6.288;2023-03-31T03:57:00;6.22;;;1.83;;
74749;SDS011;63269;53.330;-6.288;2023-03-31T03:59:25;7.50;;;2.10;;
74749;SDS011;63269;53.330;-6.288;2023-03-31T04:01:50;6.93;;;2.47;;
74749;SDS011;63269;53.330;-6.288;2023-03-31T04:04:16;6.88;;;1.77;;
74749;SDS011;63269;53.330;-6.288;2023-03-31T04:06:42;8.63;;;2.20;;
74749;SDS011;63269;53.330;-6.288;2023-03-31T04:09:07;6.47;;;2.00;;
74749;SDS011;63269;53.330;-6.288;2023-03-31T04:11:33;8.13;;;2.15;;
74749;SDS011;63269;53.330;-6.288;2023-03-31T04:13:58;5.57;;;1.88;;
74749;SDS011;63269;53.330;-6.288;2023-03-31T04:16:24;7.20;;;2.15;;
74749;SDS011;63269;53.330;-6.288;2023-03-31T04:18:50;8.00;;;1.92;;
74749;SDS011;63269;53.330;-6.288;2023-03-31T04:21:23;5.10;;;1.92;;
74749;SDS011;63269;53.330;-6.288;2023-03-31T04:23:49;7.68;;;2.33;;
74749;SDS011;63269;53.330;-6.288;2023-03-31T04:26:22;7.32;;;2.55;;
74749;SDS011;63269;53.330;-6.288;2023-03-31T04:28:54;6.90;;;1.92;;
74749;SDS011;63269;53.330;-6.288;2023-03-31T04:31:24;5.68;;;1.60;;
74749;SDS011;63269;53.330;-6.288;2023-03-31T04:33:51;5.78;;;2.15;;
74749;SDS011;63269;53.330;-6.288;2023-03-31T04:36:17;7.20;;;2.80;;
74749;SDS011;63269;53.330;-6.288;2023-03-31T04:38:46;6.50;;;2.67;;
74749;SDS011;63269;53.330;-6.288;2023-03-31T04:41:15;8.02;;;2.10;;
74749;SDS011;63269;53.330;-6.288;2023-03-31T04:43:41;4.70;;;1.83;;
74749;SDS011;63269;53.330;-6.288;2023-03-31T04:46:07;6.10;;;1.70;;
74749;SDS011;63269;53.330;-6.288;2023-03-31T04:48:33;7.18;;;2.38;;
74749;SDS011;63269;53.330;-6.288;2023-03-31T04:50:58;9.27;;;2.88;;
74749;SDS011;63269;53.330;-6.288;2023-03-31T04:53:24;6.22;;;1.70;;
74749;SDS011;63269;53.330;-6.288;2023-03-31T04:55:50;5.38;;;2.10;;
74749;SDS011;63269;53.330;-6.288;2023-03-31T04:58:16;8.30;;;2.28;;
74749;SDS011;63269;53.330;-6.288;2023-03-31T05:00:41;7.68;;;1.88;;
74749;SDS011;63269;53.330;-6.288;2023-03-31T05:03:07;5.63;;;1.90;;
74749;SDS011;63269;53.330;-6.288;2023-03-31T05:05:33;6.90;;;1.95;;
74749;SDS011;63269;53.330;-6.288;2023-03-31T05:08:00;9.65;;;2.47;;
74749;SDS011;63269;53.330;-6.288;2023-03-31T05:10:25;7.38;;;2.53;;
74749;SDS011;63269;53.330;-6.288;2023-03-31T05:12:51;9.48;;;2.25;;
74749;SDS011;63269;53.330;-6.288;2023-03-31T05:15:16;5.40;;;2.22;;
74749;SDS011;63269;53.330;-6.288;2023-03-31T05:17:42;7.40;;;2.65;;
74749;SDS011;63269;53.330;-6.288;2023-03-31T05:20:07;6.05;;;1.98;;
74749;SDS011;63269;53.330;-6.288;2023-03-31T05:22:34;6.15;;;2.35;;
74749;SDS011;63269;53.330;-6.288;2023-03-31T05:25:01;9.82;;;2.83;;
74749;SDS011;63269;53.330;-6.288;2023-03-31T05:27:27;8.95;;;2.38;;
74749;SDS011;63269;53.330;-6.288;2023-03-31T05:29:52;10.10;;;2.40;;
74749;SDS011;63269;53.330;-6.288;2023-03-31T05:32:17;5.93;;;2.10;;
74749;SDS011;63269;53.330;-6.288;2023-03-31T05:34:43;6.47;;;2.28;;
74749;SDS011;63269;53.330;-6.288;2023-03-31T05:37:08;6.15;;;1.90;;
74749;SDS011;63269;53.330;-6.288;2023-03-31T05:39:34;6.45;;;1.70;;
74749;SDS011;63269;53.330;-6.288;2023-03-31T05:42:00;9.65;;;2.10;;
74749;SDS011;63269;53.330;-6.288;2023-03-31T05:44:25;6.07;;;2.10;;
74749;SDS011;63269;53.330;-6.288;2023-03-31T05:46:54;4.90;;;1.88;;
74749;SDS011;63269;53.330;-6.288;2023-03-31T05:49:19;7.15;;;2.30;;
74749;SDS011;63269;53.330;-6.288;2023-03-31T05:51:45;6.72;;;2.25;;
74749;SDS011;63269;53.330;-6.288;2023-03-31T05:54:10;5.22;;;1.73;;
74749;SDS011;63269;53.330;-6.288;2023-03-31T05:56:36;5.18;;;2.38;;
74749;SDS011;63269;53.330;-6.288;2023-03-31T05:59:01;6.03;;;1.70;;
74749;SDS011;63269;53.330;-6.288;2023-03-31T06:01:27;6.30;;;1.60;;
74749;SDS011;63269;53.330;-6.288;2023-03-31T06:03:53;6.68;;;1.90;;
74749;SDS011;63269;53.330;-6.288;2023-03-31T06:06:20;4.25;;;1.75;;
74749;SDS011;63269;53.330;-6.288;2023-03-31T06:08:46;6.82;;;2.25;;
74749;SDS011;63269;53.330;-6.288;2023-03-31T06:11:16;5.85;;;1.75;;
74749;SDS011;63269;53.330;-6.288;2023-03-31T06:13:43;8.65;;;1.98;;
74749;SDS011;63269;53.330;-6.288;2023-03-31T06:16:10;5.38;;;1.65;;
74749;SDS011;63269;53.330;-6.288;2023-03-31T06:18:36;4.63;;;1.63;;
74749;SDS011;63269;53.330;-6.288;2023-03-31T06:21:02;6.63;;;1.80;;
74749;SDS011;63269;53.330;-6.288;2023-03-31T06:23:28;5.72;;;1.83;;
74749;SDS011;63269;53.330;-6.288;2023-03-31T06:25:53;4.85;;;1.90;;
74749;SDS011;63269;53.330;-6.288;2023-03-31T06:28:23;7.50;;;2.03;;
74749;SDS011;63269;53.330;-6.288;2023-03-31T06:30:48;7.10;;;2.10;;
74749;SDS011;63269;53.330;-6.288;2023-03-31T06:33:13;6.70;;;1.70;;
74749;SDS011;63269;53.330;-6.288;2023-03-31T06:35:40;5.35;;;2.00;;
74749;SDS011;63269;53.330;-6.288;2023-03-31T06:38:06;4.88;;;2.20;;
74749;SDS011;63269;53.330;-6.288;2023-03-31T06:40:32;5.70;;;2.10;;
74749;SDS011;63269;53.330;-6.288;2023-03-31T06:42:58;6.90;;;2.05;;
74749;SDS011;63269;53.330;-6.288;2023-03-31T06:45:23;5.85;;;2.05;;
74749;SDS011;63269;53.330;-6.288;2023-03-31T06:47:49;7.30;;;1.90;;
74749;SDS011;63269;53.330;-6.288;2023-03-31T06:50:14;7.13;;;1.90;;
74749;SDS011;63269;53.330;-6.288;2023-03-31T06:52:40;7.00;;;2.05;;
74749;SDS011;63269;53.330;-6.288;2023-03-31T06:55:06;10.93;;;2.58;;
74749;SDS011;63269;53.330;-6.288;2023-03-31T06:57:32;7.65;;;2.25;;
74749;SDS011;63269;53.330;-6.288;2023-03-31T06:59:58;4.72;;;2.13;;
74749;SDS011;63269;53.330;-6.288;2023-03-31T07:02:24;9.73;;;2.50;;
74749;SDS011;63269;53.330;-6.288;2023-03-31T07:04:50;8.35;;;3.50;;
74749;SDS011;63269;53.330;-6.288;2023-03-31T07:07:15;6.43;;;2.05;;
74749;SDS011;63269;53.330;-6.288;2023-03-31T07:09:41;6.35;;;1.83;;
74749;SDS011;63269;53.330;-6.288;2023-03-31T07:12:06;6.70;;;2.30;;
74749;SDS011;63269;53.330;-6.288;2023-03-31T07:14:32;10.32;;;2.92;;
74749;SDS011;63269;53.330;-6.288;2023-03-31T07:16:58;7.57;;;2.30;;
74749;SDS011;63269;53.330;-6.288;2023-03-31T07:19:23;7.15;;;2.35;;
74749;SDS011;63269;53.330;-6.288;2023-03-31T07:21:49;5.82;;;1.95;;
74749;SDS011;63269;53.330;-6.288;2023-03-31T07:24:15;7.70;;;2.22;;
74749;SDS011;63269;53.330;-6.288;2023-03-31T07:26:41;9.50;;;2.10;;
74749;SDS011;63269;53.330;-6.288;2023-03-31T07:29:06;6.65;;;2.13;;
74749;SDS011;63269;53.330;-6.288;2023-03-31T07:31:32;9.63;;;2.03;;
74749;SDS011;63269;53.330;-6.288;2023-03-31T07:33:57;8.70;;;2.10;;
74749;SDS011;63269;53.330;-6.288;2023-03-31T07:36:23;7.53;;;2.20;;
74749;SDS011;63269;53.330;-6.288;2023-03-31T07:38:48;5.65;;;2.50;;
74749;SDS011;63269;53.330;-6.288;2023-03-31T07:41:15;7.68;;;2.35;;
74749;SDS011;63269;53.330;-6.288;2023-03-31T07:43:42;9.80;;;2.90;;
74749;SDS011;63269;53.330;-6.288;2023-03-31T07:46:17;11.25;;;2.30;;
74749;SDS011;63269;53.330;-6.288;2023-03-31T07:48:44;10.60;;;2.20;;
74749;SDS011;63269;53.330;-6.288;2023-03-31T07:51:11;8.07;;;3.63;;
74749;SDS011;63269;53.330;-6.288;2023-03-31T07:53:38;6.72;;;2.05;;
74749;SDS011;63269;53.330;-6.288;2023-03-31T07:56:03;8.70;;;2.40;;
74749;SDS011;63269;53.330;-6.288;2023-03-31T07:58:29;7.63;;;2.20;;
74749;SDS011;63269;53.330;-6.288;2023-03-31T08:00:55;7.25;;;2.38;;
74749;SDS011;63269;53.330;-6.288;2023-03-31T08:03:20;8.15;;;2.60;;
74749;SDS011;63269;53.330;-6.288;2023-03-31T08:05:46;9.93;;;3.30;;
74749;SDS011;63269;53.330;-6.288;2023-03-31T08:08:11;8.77;;;2.50;;
74749;SDS011;63269;53.330;-6.288;2023-03-31T08:10:37;8.68;;;2.67;;
74749;SDS011;63269;53.330;-6.288;2023-03-31T08:13:02;10.38;;;3.17;;
74749;SDS011;63269;53.330;-6.288;2023-03-31T08:15:27;7.35;;;2.55;;
74749;SDS011;63269;53.330;-6.288;2023-03-31T08:17:53;9.10;;;2.92;;
74749;SDS011;63269;53.330;-6.288;2023-03-31T08:20:18;7.90;;;2.80;;
74749;SDS011;63269;53.330;-6.288;2023-03-31T08:22:44;9.13;;;3.05;;
74749;SDS011;63269;53.330;-6.288;2023-03-31T08:25:10;7.80;;;2.25;;
74749;SDS011;63269;53.330;-6.288;2023-03-31T08:27:36;11.30;;;2.95;;
74749;SDS011;63269;53.330;-6.288;2023-03-31T08:30:08;10.35;;;2.63;;
74749;SDS011;63269;53.330;-6.288;2023-03-31T08:32:35;11.80;;;2.90;;
74749;SDS011;63269;53.330;-6.288;2023-03-31T08:35:00;17.77;;;3.10;;
74749;SDS011;63269;53.330;-6.288;2023-03-31T08:37:26;8.52;;;2.58;;
74749;SDS011;63269;53.330;-6.288;2023-03-31T08:39:53;9.95;;;3.28;;
74749;SDS011;63269;53.330;-6.288;2023-03-31T08:42:54;14.87;;;2.90;;
74749;SDS011;63269;53.330;-6.288;2023-03-31T08:45:19;8.95;;;2.60;;
74749;SDS011;63269;53.330;-6.288;2023-03-31T08:47:46;10.60;;;3.35;;
74749;SDS011;63269;53.330;-6.288;2023-03-31T08:50:16;12.60;;;3.22;;
74749;SDS011;63269;53.330;-6.288;2023-03-31T08:52:49;9.68;;;3.65;;
74749;SDS011;63269;53.330;-6.288;2023-03-31T09:00:50;11.32;;;3.05;;
74749;SDS011;63269;53.330;-6.288;2023-03-31T09:06:17;8.88;;;2.65;;
74749;SDS011;63269;53.330;-6.288;2023-03-31T09:08:53;6.45;;;2.53;;
74749;SDS011;63269;53.330;-6.288;2023-03-31T09:22:18;10.02;;;2.70;;
74749;SDS011;63269;53.330;-6.288;2023-03-31T09:25:04;8.43;;;2.45;;
74749;SDS011;63269;53.330;-6.288;2023-03-31T09:27:35;7.43;;;2.30;;
74749;SDS011;63269;53.330;-6.288;2023-03-31T09:32:57;6.93;;;2.13;;
74749;SDS011;63269;53.330;-6.288;2023-03-31T09:35:38;10.23;;;2.67;;
74749;SDS011;63269;53.330;-6.288;2023-03-31T09:38:04;7.53;;;3.25;;
74749;SDS011;63269;53.330;-6.288;2023-03-31T09:40:30;8.18;;;2.53;;
74749;SDS011;63269;53.330;-6.288;2023-03-31T09:42:57;8.48;;;2.72;;
74749;SDS011;63269;53.330;-6.288;2023-03-31T09:45:22;7.35;;;2.25;;
74749;SDS011;63269;53.330;-6.288;2023-03-31T09:47:52;9.40;;;2.88;;
74749;SDS011;63269;53.330;-6.288;2023-03-31T09:50:20;10.13;;;2.83;;
74749;SDS011;63269;53.330;-6.288;2023-03-31T09:52:50;10.05;;;2.50;;
74749;SDS011;63269;53.330;-6.288;2023-03-31T10:00:35;7.22;;;2.50;;
74749;SDS011;63269;53.330;-6.288;2023-03-31T10:03:04;5.53;;;1.95;;
74749;SDS011;63269;53.330;-6.288;2023-03-31T10:05:36;6.93;;;2.10;;
74749;SDS011;63269;53.330;-6.288;2023-03-31T10:08:25;6.82;;;2.53;;
74749;SDS011;63269;53.330;-6.288;2023-03-31T10:11:09;6.43;;;2.42;;
74749;SDS011;63269;53.330;-6.288;2023-03-31T10:16:26;8.15;;;2.63;;
74749;SDS011;63269;53.330;-6.288;2023-03-31T10:18:58;7.60;;;2.55;;
74749;SDS011;63269;53.330;-6.288;2023-03-31T10:21:47;4.75;;;2.08;;
74749;SDS011;63269;53.330;-6.288;2023-03-31T10:24:19;5.95;;;2.45;;
74749;SDS011;63269;53.330;-6.288;2023-03-31T10:26:47;9.07;;;2.60;;
74749;SDS011;63269;53.330;-6.288;2023-03-31T10:29:16;7.80;;;2.50;;
74749;SDS011;63269;53.330;-6.288;2023-03-31T10:31:46;8.15;;;2.05;;
74749;SDS011;63269;53.330;-6.288;2023-03-31T10:34:13;7.97;;;2.17;;
74749;SDS011;63269;53.330;-6.288;2023-03-31T10:36:47;9.43;;;2.67;;
74749;SDS011;63269;53.330;-6.288;2023-03-31T10:39:16;8.30;;;2.05;;
74749;SDS011;63269;53.330;-6.288;2023-03-31T10:41:42;5.13;;;1.92;;
74749;SDS011;63269;53.330;-6.288;2023-03-31T10:44:10;5.50;;;1.95;;
74749;SDS011;63269;53.330;-6.288;2023-03-31T10:47:02;8.25;;;2.00;;
74749;SDS011;63269;53.330;-6.288;2023-03-31T10:49:35;5.47;;;2.40;;
74749;SDS011;63269;53.330;-6.288;2023-03-31T10:52:02;5.57;;;1.75;;
74749;SDS011;63269;53.330;-6.288;2023-03-31T10:54:27;6.68;;;1.80;;
74749;SDS011;63269;53.330;-6.288;2023-03-31T10:56:53;7.18;;;1.77;;
74749;SDS011;63269;53.330;-6.288;2023-03-31T10:59:31;5.23;;;2.20;;
74749;SDS011;63269;53.330;-6.288;2023-03-31T11:04:58;7.07;;;1.95;;
74749;SDS011;63269;53.330;-6.288;2023-03-31T11:19:15;705.40;;;195.60;;
74749;SDS011;63269;53.330;-6.288;2023-03-31T11:27:51;519.83;;;128.30;;
74749;SDS011;63269;53.330;-6.288;2023-03-31T11:30:36;484.00;;;117.30;;
74749;SDS011;63269;53.330;-6.288;2023-03-31T11:43:54;274.73;;;75.40;;
74749;SDS011;63269;53.330;-6.288;2023-03-31T11:49:02;270.05;;;69.78;;
74749;SDS011;63269;53.330;-6.288;2023-03-31T11:54:14;235.57;;;65.15;;
74749;SDS011;63269;53.330;-6.288;2023-03-31T11:56:43;216.05;;;59.45;;
74749;SDS011;63269;53.330;-6.288;2023-03-31T11:59:10;216.93;;;61.10;;
74749;SDS011;63269;53.330;-6.288;2023-03-31T12:02:14;221.15;;;59.45;;
74749;SDS011;63269;53.330;-6.288;2023-03-31T12:04:47;208.43;;;54.70;;
74749;SDS011;63269;53.330;-6.288;2023-03-31T12:10:14;184.27;;;52.17;;
74749;SDS011;63269;53.330;-6.288;2023-03-31T12:12:42;159.00;;;46.03;;
74749;SDS011;63269;53.330;-6.288;2023-03-31T12:17:42;168.88;;;45.25;;
74749;SDS011;63269;53.330;-6.288;2023-03-31T12:20:27;165.55;;;44.63;;
74749;SDS011;63269;53.330;-6.288;2023-03-31T12:22:59;148.75;;;41.47;;
74749;SDS011;63269;53.330;-6.288;2023-03-31T12:25:29;137.30;;;42.33;;
74749;SDS011;63269;53.330;-6.288;2023-03-31T12:28:13;125.72;;;36.47;;
74749;SDS011;63269;53.330;-6.288;2023-03-31T12:30:40;129.43;;;36.50;;
74749;SDS011;63269;53.330;-6.288;2023-03-31T12:55:54;90.03;;;24.67;;
74749;SDS011;63269;53.330;-6.288;2023-03-31T13:11:39;59.08;;;17.10;;
74749;SDS011;63269;53.330;-6.288;2023-03-31T13:14:24;57.92;;;16.95;;
74749;SDS011;63269;53.330;-6.288;2023-03-31T13:19:47;46.10;;;14.00;;
74749;SDS011;63269;53.330;-6.288;2023-03-31T13:27:54;37.85;;;12.25;;
74749;SDS011;63269;53.330;-6.288;2023-03-31T13:49:24;24.27;;;7.47;;
74749;SDS011;63269;53.330;-6.288;2023-03-31T13:51:56;26.92;;;8.02;;
74749;SDS011;63269;53.330;-6.288;2023-03-31T14:06:18;26.25;;;7.35;;
74749;SDS011;63269;53.330;-6.288;2023-03-31T14:11:30;21.92;;;7.00;;
74749;SDS011;63269;53.330;-6.288;2023-03-31T14:14:06;23.98;;;7.10;;
74749;SDS011;63269;53.330;-6.288;2023-03-31T14:16:43;17.35;;;5.75;;
74749;SDS011;63269;53.330;-6.288;2023-03-31T14:25:12;18.48;;;6.28;;
74749;SDS011;63269;53.330;-6.288;2023-03-31T14:36:33;13.63;;;5.35;;
74749;SDS011;63269;53.330;-6.288;2023-03-31T14:39:07;16.42;;;4.68;;
74749;SDS011;63269;53.330;-6.288;2023-03-31T14:41:34;19.13;;;5.97;;
74749;SDS011;63269;53.330;-6.288;2023-03-31T14:44:02;13.00;;;4.78;;
74749;SDS011;63269;53.330;-6.288;2023-03-31T14:46:30;13.82;;;4.88;;
74749;SDS011;63269;53.330;-6.288;2023-03-31T14:48:57;11.40;;;4.13;;
74749;SDS011;63269;53.330;-6.288;2023-03-31T14:51:27;15.60;;;4.75;;
74749;SDS011;63269;53.330;-6.288;2023-03-31T14:53:54;13.68;;;4.45;;
74749;SDS011;63269;53.330;-6.288;2023-03-31T14:56:33;13.40;;;4.63;;
74749;SDS011;63269;53.330;-6.288;2023-03-31T14:59:03;12.25;;;4.45;;
74749;SDS011;63269;53.330;-6.288;2023-03-31T15:01:31;12.52;;;4.15;;
74749;SDS011;63269;53.330;-6.288;2023-03-31T15:04:09;9.95;;;4.05;;
74749;SDS011;63269;53.330;-6.288;2023-03-31T15:06:39;11.38;;;4.25;;
74749;SDS011;63269;53.330;-6.288;2023-03-31T15:09:06;10.27;;;3.47;;
74749;SDS011;63269;53.330;-6.288;2023-03-31T15:11:34;9.07;;;4.07;;
74749;SDS011;63269;53.330;-6.288;2023-03-31T15:14:00;13.63;;;4.97;;
74749;SDS011;63269;53.330;-6.288;2023-03-31T15:18:54;10.77;;;4.28;;
74749;SDS011;63269;53.330;-6.288;2023-03-31T15:21:23;8.75;;;3.65;;
74749;SDS011;63269;53.330;-6.288;2023-03-31T15:23:50;8.27;;;3.50;;
74749;SDS011;63269;53.330;-6.288;2023-03-31T15:26:17;11.02;;;3.67;;
74749;SDS011;63269;53.330;-6.288;2023-03-31T15:28:51;10.70;;;3.67;;
74749;SDS011;63269;53.330;-6.288;2023-03-31T15:31:20;7.47;;;3.03;;
74749;SDS011;63269;53.330;-6.288;2023-03-31T15:33:48;8.85;;;3.13;;
74749;SDS011;63269;53.330;-6.288;2023-03-31T15:36:14;9.48;;;3.00;;
74749;SDS011;63269;53.330;-6.288;2023-03-31T15:38:40;7.28;;;2.60;;
74749;SDS011;63269;53.330;-6.288;2023-03-31T15:41:13;8.02;;;3.00;;
74749;SDS011;63269;53.330;-6.288;2023-03-31T15:46:08;8.93;;;3.08;;
74749;SDS011;63269;53.330;-6.288;2023-03-31T15:48:49;7.90;;;2.90;;
74749;SDS011;63269;53.330;-6.288;2023-03-31T15:51:24;9.77;;;2.70;;
74749;SDS011;63269;53.330;-6.288;2023-03-31T15:53:50;5.88;;;2.53;;
74749;SDS011;63269;53.330;-6.288;2023-03-31T15:56:27;7.70;;;2.80;;
74749;SDS011;63269;53.330;-6.288;2023-03-31T15:58:59;6.57;;;2.55;;
74749;SDS011;63269;53.330;-6.288;2023-03-31T16:01:27;6.20;;;2.30;;
74749;SDS011;63269;53.330;-6.288;2023-03-31T16:09:19;7.65;;;2.42;;
74749;SDS011;63269;53.330;-6.288;2023-03-31T16:12:10;7.30;;;2.65;;
74749;SDS011;63269;53.330;-6.288;2023-03-31T16:22:43;7.50;;;3.00;;
74749;SDS011;63269;53.330;-6.288;2023-03-31T16:25:13;7.83;;;3.23;;
74749;SDS011;63269;53.330;-6.288;2023-03-31T16:30:13;7.18;;;3.55;;
74749;SDS011;63269;53.330;-6.288;2023-03-31T16:35:41;5.35;;;2.65;;
74749;SDS011;63269;53.330;-6.288;2023-03-31T16:38:10;10.65;;;3.80;;
74749;SDS011;63269;53.330;-6.288;2023-03-31T16:40:37;6.22;;;2.70;;
74749;SDS011;63269;53.330;-6.288;2023-03-31T16:43:11;7.78;;;2.90;;
74749;SDS011;63269;53.330;-6.288;2023-03-31T16:45:45;4.15;;;2.42;;
74749;SDS011;63269;53.330;-6.288;2023-03-31T16:48:15;5.65;;;2.63;;
74749;SDS011;63269;53.330;-6.288;2023-03-31T16:50:46;6.18;;;2.72;;
74749;SDS011;63269;53.330;-6.288;2023-03-31T16:53:13;7.20;;;3.47;;
74749;SDS011;63269;53.330;-6.288;2023-03-31T16:55:40;5.43;;;3.10;;
74749;SDS011;63269;53.330;-6.288;2023-03-31T16:58:06;5.28;;;2.53;;
74749;SDS011;63269;53.330;-6.288;2023-03-31T17:00:32;5.93;;;2.30;;
74749;SDS011;63269;53.330;-6.288;2023-03-31T17:03:01;4.82;;;2.72;;
74749;SDS011;63269;53.330;-6.288;2023-03-31T17:05:28;5.57;;;2.50;;
74749;SDS011;63269;53.330;-6.288;2023-03-31T17:07:58;6.57;;;2.60;;
74749;SDS011;63269;53.330;-6.288;2023-03-31T17:10:23;5.60;;;2.70;;
74749;SDS011;63269;53.330;-6.288;2023-03-31T17:12:49;5.10;;;2.60;;
74749;SDS011;63269;53.330;-6.288;2023-03-31T17:15:15;7.63;;;2.83;;
74749;SDS011;63269;53.330;-6.288;2023-03-31T17:17:41;5.38;;;2.78;;
74749;SDS011;63269;53.330;-6.288;2023-03-31T17:20:06;5.93;;;3.10;;
74749;SDS011;63269;53.330;-6.288;2023-03-31T17:22:33;4.65;;;2.78;;
74749;SDS011;63269;53.330;-6.288;2023-03-31T17:24:59;4.47;;;2.90;;
74749;SDS011;63269;53.330;-6.288;2023-03-31T17:27:25;6.43;;;3.13;;
74749;SDS011;63269;53.330;-6.288;2023-03-31T17:29:52;5.78;;;2.58;;
74749;SDS011;63269;53.330;-6.288;2023-03-31T17:32:18;4.20;;;2.80;;
74749;SDS011;63269;53.330;-6.288;2023-03-31T17:34:44;5.82;;;3.10;;
74749;SDS011;63269;53.330;-6.288;2023-03-31T17:37:13;5.75;;;3.05;;
74749;SDS011;63269;53.330;-6.288;2023-03-31T17:39:39;6.32;;;2.95;;
74749;SDS011;63269;53.330;-6.288;2023-03-31T17:42:04;4.35;;;2.65;;
74749;SDS011;63269;53.330;-6.288;2023-03-31T17:44:30;5.05;;;2.58;;
74749;SDS011;63269;53.330;-6.288;2023-03-31T17:46:56;4.93;;;2.75;;
74749;SDS011;63269;53.330;-6.288;2023-03-31T17:49:21;6.32;;;2.50;;
74749;SDS011;63269;53.330;-6.288;2023-03-31T17:51:47;5.32;;;3.30;;
74749;SDS011;63269;53.330;-6.288;2023-03-31T17:54:13;5.07;;;2.47;;
74749;SDS011;63269;53.330;-6.288;2023-03-31T17:56:39;5.43;;;2.75;;
74749;SDS011;63269;53.330;-6.288;2023-03-31T17:59:05;4.53;;;2.13;;
74749;SDS011;63269;53.330;-6.288;2023-03-31T18:01:31;3.28;;;2.05;;
74749;SDS011;63269;53.330;-6.288;2023-03-31T18:03:57;5.25;;;3.10;;
74749;SDS011;63269;53.330;-6.288;2023-03-31T18:06:23;4.60;;;2.60;;
74749;SDS011;63269;53.330;-6.288;2023-03-31T18:08:49;4.40;;;2.35;;
74749;SDS011;63269;53.330;-6.288;2023-03-31T18:11:15;4.35;;;2.80;;
74749;SDS011;63269;53.330;-6.288;2023-03-31T18:13:41;6.63;;;3.15;;
74749;SDS011;63269;53.330;-6.288;2023-03-31T18:16:07;8.10;;;3.05;;
74749;SDS011;63269;53.330;-6.288;2023-03-31T18:18:34;8.18;;;2.72;;
74749;SDS011;63269;53.330;-6.288;2023-03-31T18:21:18;4.55;;;2.83;;
74749;SDS011;63269;53.330;-6.288;2023-03-31T18:23:44;12.50;;;2.67;;
74749;SDS011;63269;53.330;-6.288;2023-03-31T18:26:10;6.50;;;3.00;;
74749;SDS011;63269;53.330;-6.288;2023-03-31T18:28:37;9.10;;;3.03;;
74749;SDS011;63269;53.330;-6.288;2023-03-31T18:31:05;5.55;;;2.88;;